createdAt,value
2017-08-10T00:02:05.216Z,92.80
2017-08-10T00:04:39.269Z,93.50
2017-08-10T00:07:13.570Z,93.90
2017-08-10T00:09:47.529Z,93.90
2017-08-10T00:12:22.463Z,93.40
2017-08-10T00:14:57.542Z,93.10
2017-08-10T00:17:32.366Z,93.00
2017-08-10T00:20:06.315Z,92.90
2017-08-10T00:22:40.638Z,92.90
2017-08-10T00:25:14.712Z,93.00
2017-08-10T00:27:50.499Z,92.50
2017-08-10T00:30:26.044Z,92.50
2017-08-10T00:33:00.066Z,92.50
2017-08-10T00:35:34.018Z,92.70
2017-08-10T00:38:07.978Z,93.00
2017-08-10T00:40:42.732Z,93.00
2017-08-10T00:43:17.997Z,92.90
2017-08-10T00:45:52.199Z,92.80
2017-08-10T00:48:25.885Z,92.70
2017-08-10T00:51:00.025Z,93.00
2017-08-10T00:53:34.994Z,93.00
2017-08-10T00:56:08.976Z,92.90
2017-08-10T00:58:43.057Z,93.30
2017-08-10T01:01:17.990Z,92.80
2017-08-10T01:03:51.999Z,92.70
2017-08-10T01:06:26.568Z,92.90
2017-08-10T01:09:02.185Z,93.30
2017-08-10T01:11:37.205Z,93.00
2017-08-10T01:14:12.062Z,93.00
2017-08-10T01:16:47.658Z,93.70
2017-08-10T01:19:22.189Z,93.30
2017-08-10T01:21:56.088Z,93.50
2017-08-10T01:24:30.074Z,93.50
2017-08-10T01:27:04.930Z,93.00
2017-08-10T01:29:38.905Z,93.00
2017-08-10T01:32:12.652Z,93.30
2017-08-10T01:34:46.850Z,93.00
2017-08-10T01:37:21.250Z,93.10
2017-08-10T01:39:55.062Z,93.00
2017-08-10T01:42:29.159Z,93.10
2017-08-10T01:45:03.211Z,93.40
2017-08-10T01:47:37.568Z,92.90
2017-08-10T01:50:11.729Z,93.40
2017-08-10T01:52:46.687Z,93.30
2017-08-10T01:55:22.385Z,93.50
2017-08-10T01:57:56.775Z,93.50
2017-08-10T02:00:30.764Z,93.60
2017-08-10T02:03:05.444Z,93.40
2017-08-10T02:05:39.613Z,93.50
2017-08-10T02:08:13.667Z,93.40
2017-08-10T02:10:48.567Z,93.20
2017-08-10T02:13:23.778Z,93.50
2017-08-10T02:15:58.005Z,93.40
2017-08-10T02:18:33.326Z,93.50
2017-08-10T02:21:08.038Z,93.40
2017-08-10T02:23:42.987Z,93.40
2017-08-10T02:26:17.947Z,93.30
2017-08-10T02:28:54.365Z,93.60
2017-08-10T02:31:28.460Z,93.40
2017-08-10T02:34:02.735Z,93.60
2017-08-10T02:36:37.612Z,93.50
2017-08-10T02:39:11.943Z,93.30
2017-08-10T02:41:46.692Z,93.50
2017-08-10T02:44:21.455Z,93.80
2017-08-10T02:46:56.589Z,93.40
2017-08-10T02:49:31.392Z,93.20
2017-08-10T02:52:06.838Z,93.30
2017-08-10T02:54:45.889Z,93.10
2017-08-10T02:57:20.102Z,93.10
2017-08-10T02:59:56.823Z,93.50
2017-08-10T03:02:31.607Z,93.50
2017-08-10T03:05:05.742Z,93.40
2017-08-10T03:07:39.987Z,93.70
2017-08-10T03:10:15.158Z,93.50
2017-08-10T03:12:49.987Z,93.20
2017-08-10T03:15:24.064Z,93.10
2017-08-10T03:17:58.423Z,92.90
2017-08-10T03:20:32.323Z,93.00
2017-08-10T03:23:06.250Z,93.10
2017-08-10T03:25:40.408Z,92.90
2017-08-10T03:28:15.793Z,92.60
2017-08-10T03:30:50.127Z,92.60
2017-08-10T03:33:24.169Z,92.50
2017-08-10T03:35:58.561Z,92.80
2017-08-10T03:38:32.598Z,92.80
2017-08-10T03:41:07.331Z,92.60
2017-08-10T03:43:41.707Z,92.60
2017-08-10T03:46:15.764Z,92.50
2017-08-10T03:48:49.981Z,92.50
2017-08-10T03:51:28.519Z,92.50
2017-08-10T03:54:02.447Z,92.50
2017-08-10T03:56:37.755Z,92.50
2017-08-10T03:59:12.102Z,92.50
2017-08-10T04:01:46.285Z,92.60
2017-08-10T04:04:21.364Z,92.40
2017-08-10T04:06:55.993Z,92.40
2017-08-10T04:09:30.397Z,92.60
2017-08-10T04:12:04.703Z,92.70
2017-08-10T04:14:40.870Z,92.80
2017-08-10T04:17:15.487Z,92.80
2017-08-10T04:19:49.711Z,92.90
2017-08-10T04:22:25.164Z,92.80
2017-08-10T04:24:59.303Z,92.80
2017-08-10T04:27:35.553Z,92.90
2017-08-10T04:30:10.414Z,93.00
2017-08-10T04:32:45.373Z,93.20
2017-08-10T04:35:19.456Z,93.60
2017-08-10T04:37:54.543Z,94.20
2017-08-10T04:40:29.268Z,94.40
2017-08-10T04:43:04.313Z,94.50
2017-08-10T04:45:38.421Z,94.30
2017-08-10T04:48:12.476Z,94.10
2017-08-10T04:50:47.695Z,93.70
2017-08-10T04:53:21.735Z,93.70
2017-08-10T04:55:56.986Z,93.80
2017-08-10T04:58:31.198Z,93.20
2017-08-10T05:01:07.532Z,93.20
2017-08-10T05:03:43.124Z,93.20
2017-08-10T05:06:17.237Z,92.90
2017-08-10T05:08:52.079Z,93.20
2017-08-10T05:11:27.179Z,92.80
2017-08-10T05:14:01.533Z,92.90
2017-08-10T05:16:35.891Z,92.90
2017-08-10T05:19:12.962Z,93.00
2017-08-10T05:21:48.269Z,92.60
2017-08-10T05:24:23.679Z,92.60
2017-08-10T05:26:57.700Z,93.00
2017-08-10T05:29:34.325Z,92.90
2017-08-10T05:32:11.280Z,92.80
2017-08-10T05:34:45.962Z,92.70
2017-08-10T05:37:22.307Z,92.90
2017-08-10T05:39:57.698Z,93.00
2017-08-10T05:42:31.861Z,93.20
2017-08-10T05:45:13.184Z,93.10
2017-08-10T05:47:49.393Z,93.10
2017-08-10T05:50:24.236Z,93.10
2017-08-10T05:52:58.920Z,93.50
2017-08-10T05:55:34.987Z,93.80
2017-08-10T05:58:09.880Z,94.00
2017-08-10T06:00:45.978Z,94.00
2017-08-10T06:03:22.542Z,93.60
2017-08-10T06:05:57.782Z,93.30
2017-08-10T06:08:33.226Z,93.50
2017-08-10T06:11:08.595Z,93.80
2017-08-10T06:13:44.714Z,93.80
2017-08-10T06:16:22.494Z,93.30
2017-08-10T06:18:56.209Z,93.20
2017-08-10T06:21:30.433Z,93.30
2017-08-10T06:24:05.301Z,93.10
2017-08-10T06:26:48.662Z,92.80
2017-08-10T06:29:25.809Z,93.20
2017-08-10T06:31:59.740Z,93.50
2017-08-10T06:34:34.674Z,93.90
2017-08-10T06:37:09.546Z,93.60
2017-08-10T06:39:43.643Z,93.60
2017-08-10T06:42:20.047Z,93.60
2017-08-10T06:44:54.312Z,93.80
2017-08-10T06:47:29.790Z,93.70
2017-08-10T06:50:04.105Z,94.40
2017-08-10T06:52:39.473Z,93.80
2017-08-10T06:55:13.535Z,93.80
2017-08-10T06:57:50.237Z,93.40
2017-08-10T07:00:25.409Z,93.40
2017-08-10T07:03:02.718Z,93.80
2017-08-10T07:05:37.903Z,93.80
2017-08-10T07:08:13.146Z,93.50
2017-08-10T07:10:50.676Z,93.70
2017-08-10T07:13:24.617Z,93.20
2017-08-10T07:15:59.297Z,93.00
2017-08-10T07:18:35.299Z,93.00
2017-08-10T07:21:08.882Z,92.80
2017-08-10T07:23:52.652Z,92.40
2017-08-10T07:26:28.287Z,92.30
2017-08-10T07:29:05.394Z,92.80
2017-08-10T07:31:45.048Z,92.70
2017-08-10T07:34:20.410Z,92.50
2017-08-10T07:37:08.090Z,92.50
2017-08-10T07:39:41.727Z,92.50
2017-08-10T07:42:19.394Z,92.50
2017-08-10T07:44:54.497Z,92.50
2017-08-10T07:47:28.464Z,92.70
2017-08-10T07:50:07.311Z,92.40
2017-08-10T07:52:42.575Z,92.40
2017-08-10T07:55:19.670Z,92.50
2017-08-10T07:57:53.981Z,92.40
2017-08-10T08:00:27.554Z,92.50
2017-08-10T08:03:03.039Z,92.20
2017-08-10T08:05:39.078Z,92.20
2017-08-10T08:08:14.058Z,92.70
2017-08-10T08:10:51.941Z,92.60
2017-08-10T08:13:28.112Z,92.50
2017-08-10T08:16:04.495Z,91.70
2017-08-10T08:18:42.353Z,92.10
2017-08-10T08:21:20.332Z,92.10
2017-08-10T08:23:56.924Z,92.20
2017-08-10T08:26:32.609Z,91.60
2017-08-10T08:29:06.326Z,92.00
2017-08-10T08:31:42.968Z,91.60
2017-08-10T08:34:21.146Z,91.80
2017-08-10T08:36:56.651Z,92.10
2017-08-10T08:39:30.502Z,91.80
2017-08-10T08:42:04.392Z,91.20
2017-08-10T08:44:40.339Z,91.70
2017-08-10T08:47:17.143Z,91.40
2017-08-10T08:49:57.560Z,91.60
2017-08-10T08:52:32.904Z,91.80
2017-08-10T08:55:11.994Z,91.70
2017-08-10T08:57:47.282Z,91.70
2017-08-10T09:00:22.063Z,91.90
2017-08-10T09:02:59.333Z,92.50
2017-08-10T09:05:34.204Z,91.90
2017-08-10T09:08:10.675Z,92.30
2017-08-10T09:10:46.908Z,91.50
2017-08-10T09:13:20.788Z,91.50
2017-08-10T09:15:56.167Z,91.50
2017-08-10T09:18:38.326Z,91.90
2017-08-10T09:21:17.596Z,92.30
2017-08-10T09:24:07.196Z,92.20
2017-08-10T09:26:46.676Z,91.90
2017-08-10T09:29:24.205Z,91.80
2017-08-10T09:32:01.484Z,91.70
2017-08-10T09:34:36.960Z,91.70
2017-08-10T09:37:15.962Z,91.80
2017-08-10T09:39:52.295Z,91.70
2017-08-10T09:42:27.166Z,91.70
2017-08-10T09:45:04.203Z,92.20
2017-08-10T09:47:44.381Z,92.50
2017-08-10T09:50:18.824Z,92.50
2017-08-10T09:52:54.466Z,91.40
2017-08-10T09:55:29.858Z,91.60
2017-08-10T09:58:09.953Z,91.70
2017-08-10T10:00:47.341Z,91.90
2017-08-10T10:03:22.059Z,91.40
2017-08-10T10:05:58.862Z,91.50
2017-08-10T10:08:33.329Z,91.10
2017-08-10T10:11:06.957Z,91.10
2017-08-10T10:13:40.956Z,91.20
2017-08-10T10:16:16.243Z,91.40
2017-08-10T10:18:54.047Z,91.30
2017-08-10T10:21:29.373Z,91.30
2017-08-10T10:24:03.745Z,90.60
2017-08-10T10:26:40.681Z,90.70
2017-08-10T10:29:19.054Z,90.40
2017-08-10T10:31:52.792Z,91.10
2017-08-10T10:34:26.662Z,90.80
2017-08-10T10:37:03.608Z,90.90
2017-08-10T10:39:39.920Z,90.80
2017-08-10T10:42:14.090Z,90.70
2017-08-10T10:44:47.860Z,90.80
2017-08-10T10:47:24.182Z,91.40
2017-08-10T10:49:58.089Z,91.40
2017-08-10T10:52:32.768Z,91.50
2017-08-10T10:55:08.322Z,91.70
2017-08-10T10:57:42.187Z,91.50
2017-08-10T11:00:22.306Z,91.30
2017-08-10T11:02:56.363Z,91.60
2017-08-10T11:05:31.274Z,91.40
2017-08-10T11:08:07.188Z,91.40
2017-08-10T11:10:42.579Z,91.70
2017-08-10T11:13:17.412Z,91.80
2017-08-10T11:15:51.015Z,91.90
2017-08-10T11:18:24.808Z,91.80
2017-08-10T11:21:00.207Z,91.70
2017-08-10T11:23:34.643Z,91.30
2017-08-10T11:26:10.048Z,91.50
2017-08-10T11:28:46.296Z,91.70
2017-08-10T11:31:21.612Z,92.00
2017-08-10T11:34:01.032Z,91.90
2017-08-10T11:36:35.585Z,91.80
2017-08-10T11:39:12.031Z,91.60
2017-08-10T11:41:45.822Z,91.80
2017-08-10T11:44:20.135Z,91.70
2017-08-10T11:46:59.997Z,91.70
2017-08-10T11:49:33.885Z,91.70
2017-08-10T11:52:09.905Z,91.30
2017-08-10T11:57:42.816Z,91.80
2017-08-10T12:00:18.656Z,91.70
2017-08-10T12:02:52.423Z,91.30
2017-08-10T12:05:26.240Z,91.20
2017-08-10T12:08:00.660Z,91.40
2017-08-10T12:10:38.759Z,91.40
2017-08-10T12:13:15.716Z,91.20
2017-08-10T12:15:52.270Z,91.10
2017-08-10T12:18:26.308Z,91.40
2017-08-10T12:21:03.404Z,90.90
2017-08-10T12:23:40.592Z,90.00
2017-08-10T12:26:14.676Z,90.00
2017-08-10T12:28:48.348Z,90.30
2017-08-10T12:31:22.001Z,90.80
2017-08-10T12:33:56.472Z,90.90
2017-08-10T12:36:35.461Z,90.40
2017-08-10T12:39:11.486Z,89.90
2017-08-10T12:41:45.795Z,89.40
2017-08-10T12:44:21.114Z,89.50
2017-08-10T12:46:55.033Z,89.30
2017-08-10T12:49:29.020Z,90.00
2017-08-10T12:52:02.993Z,88.60
2017-08-10T12:54:38.280Z,88.20
2017-08-10T12:57:12.199Z,89.50
2017-08-10T12:59:47.590Z,89.10
2017-08-10T13:02:21.848Z,89.00
2017-08-10T13:04:55.666Z,89.40
2017-08-10T13:07:29.543Z,89.80
2017-08-10T13:10:04.531Z,88.30
2017-08-10T13:12:39.812Z,88.10
2017-08-10T13:15:13.883Z,88.50
2017-08-10T13:17:47.812Z,89.10
2017-08-10T13:20:21.597Z,89.50
2017-08-10T13:22:55.365Z,88.90
2017-08-10T13:25:32.648Z,89.30
2017-08-10T13:28:06.380Z,89.20
2017-08-10T13:30:40.376Z,90.00
2017-08-10T13:33:14.544Z,90.30
2017-08-10T13:35:48.858Z,90.50
2017-08-10T13:38:22.726Z,91.30
2017-08-10T13:40:56.594Z,92.60
2017-08-10T13:43:31.314Z,93.40
2017-08-10T13:46:06.045Z,93.40
2017-08-10T13:48:40.317Z,93.20
2017-08-10T13:51:14.357Z,92.40
2017-08-10T13:53:48.307Z,92.50
2017-08-10T13:56:22.290Z,92.80
2017-08-10T13:58:56.272Z,93.50
2017-08-10T14:01:30.251Z,92.60
2017-08-10T14:04:05.330Z,92.40
2017-08-10T14:06:40.028Z,92.00
2017-08-10T14:12:00.810Z,92.20
2017-08-10T14:14:34.631Z,92.20
2017-08-10T14:17:09.443Z,91.90
2017-08-10T14:19:44.288Z,91.80
2017-08-10T14:22:19.218Z,91.80
2017-08-10T14:24:53.960Z,90.80
2017-08-10T14:27:29.583Z,90.80
2017-08-10T14:30:03.474Z,91.20
2017-08-10T14:32:38.511Z,91.30
2017-08-10T14:35:12.789Z,91.30
2017-08-10T14:37:46.918Z,91.50
2017-08-10T14:40:22.156Z,91.40
2017-08-10T14:42:56.273Z,91.10
2017-08-10T14:45:31.236Z,91.00
2017-08-10T14:48:05.367Z,91.20
2017-08-10T14:50:40.844Z,91.60
2017-08-10T14:53:14.607Z,91.50
2017-08-10T14:55:49.140Z,91.40
2017-08-10T14:58:22.989Z,91.10
2017-08-10T15:00:57.710Z,91.50
2017-08-10T15:06:28.174Z,91.50
2017-08-10T15:09:03.009Z,91.20
2017-08-10T15:11:37.005Z,91.80
2017-08-10T15:14:11.455Z,92.20
2017-08-10T15:16:46.492Z,92.40
2017-08-10T15:19:21.583Z,92.40
2017-08-10T15:21:55.614Z,92.20
2017-08-10T15:24:30.623Z,92.40
2017-08-10T15:27:04.413Z,92.40
2017-08-10T15:29:38.981Z,92.50
2017-08-10T15:32:13.023Z,92.40
2017-08-10T15:34:46.969Z,92.30
2017-08-10T15:37:20.810Z,91.20
2017-08-10T15:39:54.776Z,91.80
2017-08-10T15:42:29.239Z,91.90
2017-08-10T15:45:03.951Z,91.80
2017-08-10T15:47:38.726Z,92.10
2017-08-10T15:50:12.661Z,92.00
2017-08-10T15:52:47.379Z,92.30
2017-08-10T15:55:21.368Z,92.30
2017-08-10T15:57:55.209Z,92.20
2017-08-10T16:00:29.355Z,92.60
2017-08-10T16:03:03.106Z,92.00
2017-08-10T16:05:37.803Z,92.30
2017-08-10T16:08:11.686Z,92.70
2017-08-10T16:10:45.430Z,91.60
2017-08-10T16:13:20.105Z,92.20
2017-08-10T16:15:53.737Z,92.00
2017-08-10T16:18:28.006Z,91.60
2017-08-10T16:21:02.131Z,92.40
2017-08-10T16:23:36.642Z,92.60
2017-08-10T16:26:11.290Z,92.80
2017-08-10T16:28:44.991Z,92.70
2017-08-10T16:31:19.711Z,92.80
2017-08-10T16:33:54.650Z,92.80
2017-08-10T16:36:28.527Z,92.50
2017-08-10T16:39:02.552Z,92.70
2017-08-10T16:41:37.086Z,91.80
2017-08-10T16:44:11.024Z,91.80
2017-08-10T16:46:45.648Z,92.50
2017-08-10T16:49:20.168Z,92.20
2017-08-10T16:51:54.531Z,92.20
2017-08-10T16:54:31.789Z,92.30
2017-08-10T16:57:05.557Z,92.50
2017-08-10T16:59:40.084Z,92.70
2017-08-10T17:02:13.935Z,91.90
2017-08-10T17:04:47.834Z,92.50
2017-08-10T17:07:22.349Z,92.10
2017-08-10T17:09:56.230Z,92.10
2017-08-10T17:12:30.105Z,92.20
2017-08-10T17:15:04.166Z,91.70
2017-08-10T17:17:38.357Z,92.00
2017-08-10T17:20:13.111Z,91.50
2017-08-10T17:22:47.054Z,91.30
2017-08-10T17:25:21.716Z,91.30
2017-08-10T17:27:55.792Z,91.30
2017-08-10T17:30:30.600Z,91.00
2017-08-10T17:33:04.313Z,91.90
2017-08-10T17:35:38.332Z,91.40
2017-08-10T17:38:13.237Z,91.40
2017-08-10T17:40:47.099Z,92.30
2017-08-10T17:43:21.380Z,91.20
2017-08-10T17:45:56.097Z,92.30
2017-08-10T17:48:30.114Z,92.50
2017-08-10T17:51:12.384Z,92.30
2017-08-10T17:53:52.382Z,91.80
2017-08-10T17:56:29.231Z,91.80
2017-08-10T17:59:03.933Z,92.80
2017-08-10T18:01:40.764Z,92.20
2017-08-10T18:04:16.217Z,92.10
2017-08-10T18:06:51.943Z,92.30
2017-08-10T18:09:26.137Z,92.30
2017-08-10T18:12:00.304Z,92.90
2017-08-10T18:14:38.227Z,92.90
2017-08-10T18:17:13.668Z,92.40
2017-08-10T18:19:47.504Z,92.70
2017-08-10T18:22:22.356Z,91.90
2017-08-10T18:24:56.589Z,91.90
2017-08-10T18:27:30.450Z,91.60
2017-08-10T18:30:04.545Z,91.10
2017-08-10T18:32:39.571Z,91.60
2017-08-10T18:35:14.389Z,91.20
2017-08-10T18:37:48.641Z,91.20
2017-08-10T18:40:24.183Z,91.30
2017-08-10T18:42:58.293Z,91.80
2017-08-10T18:45:32.220Z,91.70
2017-08-10T18:48:06.055Z,91.40
2017-08-10T18:50:40.316Z,91.90
2017-08-10T18:53:15.776Z,92.10
2017-08-10T18:55:50.012Z,92.90
2017-08-10T18:58:24.734Z,92.50
2017-08-10T19:00:58.609Z,92.20
2017-08-10T19:03:32.649Z,91.80
2017-08-10T19:06:07.377Z,91.60
2017-08-10T19:08:42.170Z,91.20
2017-08-10T19:11:16.172Z,91.20
2017-08-10T19:13:50.339Z,91.20
2017-08-10T19:16:25.221Z,90.90
2017-08-10T19:18:59.331Z,91.00
2017-08-10T19:21:33.568Z,91.00
2017-08-10T19:24:07.389Z,91.10
2017-08-10T19:26:42.172Z,91.00
2017-08-10T19:29:16.063Z,91.00
2017-08-10T19:31:50.978Z,91.40
2017-08-10T19:34:25.022Z,91.30
2017-08-10T19:36:59.119Z,90.90
2017-08-10T19:39:34.625Z,90.90
2017-08-10T19:42:08.424Z,90.90
2017-08-10T19:44:42.254Z,91.50
2017-08-10T19:47:17.248Z,91.60
2017-08-10T19:52:50.022Z,91.00
2017-08-10T19:55:23.762Z,90.90
2017-08-10T19:57:59.095Z,90.80
2017-08-10T20:00:33.436Z,90.70
2017-08-10T20:03:08.153Z,90.90
2017-08-10T20:05:43.800Z,90.90
2017-08-10T20:08:18.545Z,90.80
2017-08-10T20:10:54.358Z,90.90
2017-08-10T20:13:28.253Z,90.90
2017-08-10T20:16:02.259Z,91.00
2017-08-10T20:18:36.037Z,90.80
2017-08-10T20:21:10.110Z,91.00
2017-08-10T20:23:44.232Z,90.80
2017-08-10T20:26:19.136Z,91.30
2017-08-10T20:28:52.998Z,91.30
2017-08-10T20:31:27.109Z,91.30
2017-08-10T20:34:01.731Z,91.60
2017-08-10T20:36:35.674Z,91.60
2017-08-10T20:39:09.503Z,91.50
2017-08-10T20:41:43.297Z,91.40
2017-08-10T20:44:18.380Z,91.00
2017-08-10T20:46:52.533Z,91.10
2017-08-10T20:49:27.999Z,91.60
2017-08-10T20:52:01.954Z,91.30
2017-08-10T20:54:36.851Z,91.00
2017-08-10T20:57:10.717Z,91.00
2017-08-10T20:59:44.778Z,91.60
2017-08-10T21:02:19.182Z,91.90
2017-08-10T21:04:54.134Z,91.60
2017-08-10T21:07:28.411Z,91.70
2017-08-10T21:10:02.934Z,91.40
2017-08-10T21:12:36.971Z,91.30
2017-08-10T21:15:12.000Z,91.20
2017-08-10T21:17:46.014Z,91.40
2017-08-10T21:20:19.937Z,91.20
2017-08-10T21:22:54.723Z,91.30
2017-08-10T21:25:29.313Z,91.30
2017-08-10T21:28:03.011Z,91.30
2017-08-10T21:30:38.093Z,92.10
2017-08-10T21:33:13.014Z,92.40
2017-08-10T21:35:48.464Z,92.00
2017-08-10T21:38:22.445Z,91.60
2017-08-10T21:40:57.713Z,91.80
2017-08-10T21:43:31.453Z,91.80
2017-08-10T21:46:05.358Z,91.80
2017-08-10T21:48:39.345Z,91.80
2017-08-10T21:51:13.122Z,91.50
2017-08-10T21:53:47.020Z,91.60
2017-08-10T21:56:20.835Z,91.60
2017-08-10T21:58:55.806Z,91.60
2017-08-10T22:01:30.938Z,91.80
2017-08-10T22:04:04.658Z,91.80
2017-08-10T22:06:41.081Z,91.40
2017-08-10T22:09:14.889Z,91.30
2017-08-10T22:11:48.858Z,91.50
2017-08-10T22:14:25.113Z,91.70
2017-08-10T22:17:00.984Z,91.80
2017-08-10T22:19:34.718Z,91.70
2017-08-10T22:22:09.354Z,91.90
2017-08-10T22:24:44.701Z,91.90
2017-08-10T22:27:20.015Z,91.80
2017-08-10T22:29:54.603Z,91.70
2017-08-10T22:32:29.123Z,91.30
2017-08-10T22:35:03.175Z,92.10
2017-08-10T22:37:37.532Z,91.90
2017-08-10T22:40:12.548Z,91.90
2017-08-10T22:42:47.058Z,91.70
2017-08-10T22:45:21.111Z,91.90
2017-08-10T22:47:56.577Z,92.20
2017-08-10T22:50:30.518Z,92.20
2017-08-10T22:53:05.820Z,92.60
2017-08-10T22:55:39.838Z,92.80
2017-08-10T22:58:14.904Z,92.60
2017-08-10T23:00:49.109Z,92.70
2017-08-10T23:03:22.833Z,92.30
2017-08-10T23:05:56.893Z,92.20
2017-08-10T23:08:32.399Z,92.80
2017-08-10T23:11:06.403Z,92.70
2017-08-10T23:13:40.193Z,92.50
2017-08-10T23:16:15.304Z,92.70
2017-08-10T23:18:50.167Z,92.40
2017-08-10T23:21:24.980Z,91.90
2017-08-10T23:23:59.009Z,92.30
2017-08-10T23:26:34.824Z,92.50
2017-08-10T23:29:09.177Z,92.30
2017-08-10T23:31:43.062Z,92.20
2017-08-10T23:34:16.886Z,91.50
2017-08-10T23:36:50.580Z,92.40
2017-08-10T23:39:24.525Z,92.30
2017-08-10T23:41:58.224Z,92.30
2017-08-10T23:44:32.870Z,92.70
2017-08-10T23:47:06.969Z,92.70
2017-08-10T23:49:40.907Z,92.70
2017-08-10T23:52:14.742Z,92.80
2017-08-10T23:54:49.610Z,92.30
2017-08-10T23:57:24.315Z,92.80
2017-08-10T23:59:58.311Z,92.40
